sensor_id;sensor_type;location;lat;lon;timestamp;temperature;humidity
36594;DHT22;22603;47.900;8.146;2022-07-12T00:01:06;11.70;99.90
36594;DHT22;22603;47.900;8.146;2022-07-12T00:03:53;11.70;99.90
36594;DHT22;22603;47.900;8.146;2022-07-12T00:06:42;11.70;99.90
36594;DHT22;22603;47.900;8.146;2022-07-12T00:09:29;11.60;99.90
36594;DHT22;22603;47.900;8.146;2022-07-12T00:12:16;11.60;99.90
36594;DHT22;22603;47.900;8.146;2022-07-12T00:15:06;11.50;99.90
36594;DHT22;22603;47.900;8.146;2022-07-12T00:17:53;11.40;99.90
36594;DHT22;22603;47.900;8.146;2022-07-12T00:20:41;11.40;99.90
36594;DHT22;22603;47.900;8.146;2022-07-12T00:23:27;11.40;99.90
36594;DHT22;22603;47.900;8.146;2022-07-12T00:26:14;11.30;99.90
36594;DHT22;22603;47.900;8.146;2022-07-12T00:29:02;11.30;99.90
36594;DHT22;22603;47.900;8.146;2022-07-12T00:31:50;11.30;99.90
36594;DHT22;22603;47.900;8.146;2022-07-12T00:34:37;11.20;99.90
36594;DHT22;22603;47.900;8.146;2022-07-12T00:37:24;11.10;99.90
36594;DHT22;22603;47.900;8.146;2022-07-12T00:40:12;11.10;99.90
36594;DHT22;22603;47.900;8.146;2022-07-12T00:42:59;11.10;99.90
36594;DHT22;22603;47.900;8.146;2022-07-12T00:45:46;11.00;99.90
36594;DHT22;22603;47.900;8.146;2022-07-12T00:49:00;11.00;99.90
36594;DHT22;22603;47.900;8.146;2022-07-12T00:52:01;10.90;99.90
36594;DHT22;22603;47.900;8.146;2022-07-12T00:54:48;10.90;99.90
36594;DHT22;22603;47.900;8.146;2022-07-12T00:57:35;10.90;99.90
36594;DHT22;22603;47.900;8.146;2022-07-12T01:00:24;10.90;99.90
36594;DHT22;22603;47.900;8.146;2022-07-12T01:03:11;10.80;99.90
36594;DHT22;22603;47.900;8.146;2022-07-12T01:06:00;10.70;99.90
36594;DHT22;22603;47.900;8.146;2022-07-12T01:08:47;10.70;99.90
36594;DHT22;22603;47.900;8.146;2022-07-12T01:11:35;10.70;99.90
36594;DHT22;22603;47.900;8.146;2022-07-12T01:14:22;10.60;99.90
36594;DHT22;22603;47.900;8.146;2022-07-12T01:17:09;10.60;99.90
36594;DHT22;22603;47.900;8.146;2022-07-12T01:19:58;10.60;99.90
36594;DHT22;22603;47.900;8.146;2022-07-12T01:22:51;10.70;99.90
36594;DHT22;22603;47.900;8.146;2022-07-12T01:25:40;10.70;99.90
36594;DHT22;22603;47.900;8.146;2022-07-12T01:28:27;10.60;99.90
36594;DHT22;22603;47.900;8.146;2022-07-12T01:31:16;10.60;99.90
36594;DHT22;22603;47.900;8.146;2022-07-12T01:34:04;10.50;99.90
36594;DHT22;22603;47.900;8.146;2022-07-12T01:36:52;10.50;99.90
36594;DHT22;22603;47.900;8.146;2022-07-12T01:39:42;10.40;99.90
36594;DHT22;22603;47.900;8.146;2022-07-12T01:42:29;10.40;99.90
36594;DHT22;22603;47.900;8.146;2022-07-12T01:45:17;10.40;99.90
36594;DHT22;22603;47.900;8.146;2022-07-12T01:48:04;10.40;99.90
36594;DHT22;22603;47.900;8.146;2022-07-12T01:50:51;10.40;99.90
36594;DHT22;22603;47.900;8.146;2022-07-12T01:53:38;10.40;99.90
36594;DHT22;22603;47.900;8.146;2022-07-12T01:56:26;10.20;99.90
36594;DHT22;22603;47.900;8.146;2022-07-12T01:59:14;10.20;99.90
36594;DHT22;22603;47.900;8.146;2022-07-12T02:02:01;10.20;99.90
36594;DHT22;22603;47.900;8.146;2022-07-12T02:04:48;10.10;99.90
36594;DHT22;22603;47.900;8.146;2022-07-12T02:07:36;10.10;99.90
36594;DHT22;22603;47.900;8.146;2022-07-12T02:10:23;10.10;99.90
36594;DHT22;22603;47.900;8.146;2022-07-12T02:13:12;10.10;99.90
36594;DHT22;22603;47.900;8.146;2022-07-12T02:15:58;10.10;99.90
36594;DHT22;22603;47.900;8.146;2022-07-12T02:18:45;10.10;99.90
36594;DHT22;22603;47.900;8.146;2022-07-12T02:21:32;10.00;99.90
36594;DHT22;22603;47.900;8.146;2022-07-12T02:24:20;10.00;99.90
36594;DHT22;22603;47.900;8.146;2022-07-12T02:27:07;10.00;99.90
36594;DHT22;22603;47.900;8.146;2022-07-12T02:29:56;9.90;99.90
36594;DHT22;22603;47.900;8.146;2022-07-12T02:32:43;9.80;99.90
36594;DHT22;22603;47.900;8.146;2022-07-12T02:35:31;9.80;99.90
36594;DHT22;22603;47.900;8.146;2022-07-12T02:38:18;9.90;99.90
36594;DHT22;22603;47.900;8.146;2022-07-12T02:41:05;9.90;99.90
36594;DHT22;22603;47.900;8.146;2022-07-12T02:43:54;9.90;99.90
36594;DHT22;22603;47.900;8.146;2022-07-12T02:46:42;9.90;99.90
36594;DHT22;22603;47.900;8.146;2022-07-12T02:49:29;9.90;99.90
36594;DHT22;22603;47.900;8.146;2022-07-12T02:52:17;9.80;99.90
36594;DHT22;22603;47.900;8.146;2022-07-12T02:55:04;9.80;99.90
36594;DHT22;22603;47.900;8.146;2022-07-12T02:57:52;9.80;99.90
36594;DHT22;22603;47.900;8.146;2022-07-12T03:00:39;9.80;99.90
36594;DHT22;22603;47.900;8.146;2022-07-12T03:03:28;9.80;99.90
36594;DHT22;22603;47.900;8.146;2022-07-12T03:06:15;9.70;99.90
36594;DHT22;22603;47.900;8.146;2022-07-12T03:09:03;9.70;99.90
36594;DHT22;22603;47.900;8.146;2022-07-12T03:11:49;9.70;99.90
36594;DHT22;22603;47.900;8.146;2022-07-12T03:14:36;9.70;99.90
36594;DHT22;22603;47.900;8.146;2022-07-12T03:17:24;9.60;99.90
36594;DHT22;22603;47.900;8.146;2022-07-12T03:20:13;9.60;99.90
36594;DHT22;22603;47.900;8.146;2022-07-12T03:23:00;9.50;99.90
36594;DHT22;22603;47.900;8.146;2022-07-12T03:25:47;9.50;99.90
36594;DHT22;22603;47.900;8.146;2022-07-12T03:28:34;9.50;99.90
36594;DHT22;22603;47.900;8.146;2022-07-12T03:31:21;9.50;99.90
36594;DHT22;22603;47.900;8.146;2022-07-12T03:34:10;9.50;99.90
36594;DHT22;22603;47.900;8.146;2022-07-12T03:36:58;9.60;99.90
36594;DHT22;22603;47.900;8.146;2022-07-12T03:39:45;9.60;99.90
36594;DHT22;22603;47.900;8.146;2022-07-12T03:42:33;9.60;99.90
36594;DHT22;22603;47.900;8.146;2022-07-12T03:45:20;9.60;99.90
36594;DHT22;22603;47.900;8.146;2022-07-12T03:48:07;9.60;99.90
36594;DHT22;22603;47.900;8.146;2022-07-12T03:50:55;9.50;99.90
36594;DHT22;22603;47.900;8.146;2022-07-12T03:53:43;9.50;99.90
36594;DHT22;22603;47.900;8.146;2022-07-12T03:56:30;9.50;99.90
36594;DHT22;22603;47.900;8.146;2022-07-12T03:59:34;9.50;99.90
36594;DHT22;22603;47.900;8.146;2022-07-12T04:02:26;9.50;99.90
36594;DHT22;22603;47.900;8.146;2022-07-12T04:05:13;9.50;99.90
36594;DHT22;22603;47.900;8.146;2022-07-12T04:08:00;9.50;99.90
36594;DHT22;22603;47.900;8.146;2022-07-12T04:10:49;9.40;99.90
36594;DHT22;22603;47.900;8.146;2022-07-12T04:13:36;9.40;99.90
36594;DHT22;22603;47.900;8.146;2022-07-12T04:16:22;9.30;99.90
36594;DHT22;22603;47.900;8.146;2022-07-12T04:19:10;9.30;99.90
36594;DHT22;22603;47.900;8.146;2022-07-12T04:21:57;9.30;99.90
36594;DHT22;22603;47.900;8.146;2022-07-12T04:24:45;9.20;99.90
36594;DHT22;22603;47.900;8.146;2022-07-12T04:27:33;9.20;99.90
36594;DHT22;22603;47.900;8.146;2022-07-12T04:30:20;9.30;99.90
36594;DHT22;22603;47.900;8.146;2022-07-12T04:33:08;9.40;99.90
36594;DHT22;22603;47.900;8.146;2022-07-12T04:35:56;9.40;99.90
36594;DHT22;22603;47.900;8.146;2022-07-12T04:38:43;9.50;99.90
36594;DHT22;22603;47.900;8.146;2022-07-12T04:41:30;9.50;99.90
36594;DHT22;22603;47.900;8.146;2022-07-12T04:44:18;9.50;99.90
36594;DHT22;22603;47.900;8.146;2022-07-12T04:47:05;9.60;99.90
36594;DHT22;22603;47.900;8.146;2022-07-12T04:49:52;9.60;99.90
36594;DHT22;22603;47.900;8.146;2022-07-12T04:52:40;9.70;99.90
36594;DHT22;22603;47.900;8.146;2022-07-12T04:55:27;9.70;99.90
36594;DHT22;22603;47.900;8.146;2022-07-12T04:58:14;9.80;99.90
36594;DHT22;22603;47.900;8.146;2022-07-12T05:01:03;9.90;99.90
36594;DHT22;22603;47.900;8.146;2022-07-12T05:03:50;10.00;99.90
36594;DHT22;22603;47.900;8.146;2022-07-12T05:06:36;10.00;99.90
36594;DHT22;22603;47.900;8.146;2022-07-12T05:09:23;10.20;99.90
36594;DHT22;22603;47.900;8.146;2022-07-12T05:12:10;10.30;99.90
36594;DHT22;22603;47.900;8.146;2022-07-12T05:14:57;10.50;99.90
36594;DHT22;22603;47.900;8.146;2022-07-12T05:17:46;10.60;99.90
36594;DHT22;22603;47.900;8.146;2022-07-12T05:20:33;10.70;99.90
36594;DHT22;22603;47.900;8.146;2022-07-12T05:23:20;10.90;99.90
36594;DHT22;22603;47.900;8.146;2022-07-12T05:26:07;11.00;99.90
36594;DHT22;22603;47.900;8.146;2022-07-12T05:29:01;11.20;99.90
36594;DHT22;22603;47.900;8.146;2022-07-12T05:31:48;11.40;99.90
36594;DHT22;22603;47.900;8.146;2022-07-12T05:34:37;11.50;99.90
36594;DHT22;22603;47.900;8.146;2022-07-12T05:37:24;11.60;99.90
36594;DHT22;22603;47.900;8.146;2022-07-12T05:40:11;11.80;99.90
36594;DHT22;22603;47.900;8.146;2022-07-12T05:42:59;11.80;99.90
36594;DHT22;22603;47.900;8.146;2022-07-12T05:45:46;12.00;99.90
36594;DHT22;22603;47.900;8.146;2022-07-12T05:48:33;12.10;99.90
36594;DHT22;22603;47.900;8.146;2022-07-12T05:51:21;12.20;99.90
36594;DHT22;22603;47.900;8.146;2022-07-12T05:54:26;12.40;99.90
36594;DHT22;22603;47.900;8.146;2022-07-12T05:57:17;12.50;99.90
36594;DHT22;22603;47.900;8.146;2022-07-12T06:00:06;12.60;99.90
36594;DHT22;22603;47.900;8.146;2022-07-12T06:02:53;12.70;99.90
36594;DHT22;22603;47.900;8.146;2022-07-12T06:05:42;12.80;99.90
36594;DHT22;22603;47.900;8.146;2022-07-12T06:08:30;12.80;99.90
36594;DHT22;22603;47.900;8.146;2022-07-12T06:11:18;12.90;99.90
36594;DHT22;22603;47.900;8.146;2022-07-12T06:14:05;13.00;99.90
36594;DHT22;22603;47.900;8.146;2022-07-12T06:16:53;13.10;99.90
36594;DHT22;22603;47.900;8.146;2022-07-12T06:19:40;13.30;99.90
36594;DHT22;22603;47.900;8.146;2022-07-12T06:22:27;13.40;99.90
36594;DHT22;22603;47.900;8.146;2022-07-12T06:25:16;13.60;99.90
36594;DHT22;22603;47.900;8.146;2022-07-12T06:28:25;13.90;99.90
36594;DHT22;22603;47.900;8.146;2022-07-12T06:31:12;14.70;99.90
36594;DHT22;22603;47.900;8.146;2022-07-12T06:33:59;15.50;99.90
36594;DHT22;22603;47.900;8.146;2022-07-12T06:36:46;16.40;99.90
36594;DHT22;22603;47.900;8.146;2022-07-12T06:39:33;16.60;99.90
36594;DHT22;22603;47.900;8.146;2022-07-12T06:42:21;17.20;99.90
36594;DHT22;22603;47.900;8.146;2022-07-12T06:45:09;18.10;99.90
36594;DHT22;22603;47.900;8.146;2022-07-12T06:47:57;18.20;99.90
36594;DHT22;22603;47.900;8.146;2022-07-12T06:50:44;19.40;99.90
36594;DHT22;22603;47.900;8.146;2022-07-12T06:53:30;20.10;99.90
36594;DHT22;22603;47.900;8.146;2022-07-12T06:56:17;20.00;99.90
36594;DHT22;22603;47.900;8.146;2022-07-12T06:59:07;19.80;99.90
36594;DHT22;22603;47.900;8.146;2022-07-12T07:02:00;21.00;99.90
36594;DHT22;22603;47.900;8.146;2022-07-12T07:04:48;21.70;99.90
36594;DHT22;22603;47.900;8.146;2022-07-12T07:07:35;20.60;99.90
36594;DHT22;22603;47.900;8.146;2022-07-12T07:10:22;21.60;99.90
36594;DHT22;22603;47.900;8.146;2022-07-12T07:13:10;22.00;99.90
36594;DHT22;22603;47.900;8.146;2022-07-12T07:15:59;22.00;99.90
36594;DHT22;22603;47.900;8.146;2022-07-12T07:18:46;22.50;99.90
36594;DHT22;22603;47.900;8.146;2022-07-12T07:21:33;22.80;99.90
36594;DHT22;22603;47.900;8.146;2022-07-12T07:24:20;22.90;99.90
36594;DHT22;22603;47.900;8.146;2022-07-12T07:27:10;23.30;99.90
36594;DHT22;22603;47.900;8.146;2022-07-12T07:29:57;22.70;99.90
36594;DHT22;22603;47.900;8.146;2022-07-12T07:33:03;23.10;99.90
36594;DHT22;22603;47.900;8.146;2022-07-12T07:35:50;22.80;99.90
36594;DHT22;22603;47.900;8.146;2022-07-12T07:38:38;22.70;99.90
36594;DHT22;22603;47.900;8.146;2022-07-12T07:41:26;22.70;99.90
36594;DHT22;22603;47.900;8.146;2022-07-12T07:44:13;22.60;99.90
36594;DHT22;22603;47.900;8.146;2022-07-12T07:47:00;23.00;99.90
36594;DHT22;22603;47.900;8.146;2022-07-12T07:49:49;23.50;99.90
36594;DHT22;22603;47.900;8.146;2022-07-12T07:52:36;24.20;99.90
36594;DHT22;22603;47.900;8.146;2022-07-12T07:55:23;25.30;99.90
36594;DHT22;22603;47.900;8.146;2022-07-12T07:58:11;25.40;99.90
36594;DHT22;22603;47.900;8.146;2022-07-12T08:00:58;24.70;99.90
36594;DHT22;22603;47.900;8.146;2022-07-12T08:03:45;23.80;99.90
36594;DHT22;22603;47.900;8.146;2022-07-12T08:06:34;24.10;99.90
36594;DHT22;22603;47.900;8.146;2022-07-12T08:09:20;24.90;99.90
36594;DHT22;22603;47.900;8.146;2022-07-12T08:12:08;25.30;99.90
36594;DHT22;22603;47.900;8.146;2022-07-12T08:14:54;25.80;99.90
36594;DHT22;22603;47.900;8.146;2022-07-12T08:17:41;26.00;99.90
36594;DHT22;22603;47.900;8.146;2022-07-12T08:20:37;25.90;99.90
36594;DHT22;22603;47.900;8.146;2022-07-12T08:23:34;26.00;99.90
36594;DHT22;22603;47.900;8.146;2022-07-12T08:26:21;26.20;99.90
36594;DHT22;22603;47.900;8.146;2022-07-12T08:29:08;26.40;99.90
36594;DHT22;22603;47.900;8.146;2022-07-12T08:31:55;26.50;99.90
36594;DHT22;22603;47.900;8.146;2022-07-12T08:34:42;26.90;99.90
36594;DHT22;22603;47.900;8.146;2022-07-12T08:37:29;26.90;99.90
36594;DHT22;22603;47.900;8.146;2022-07-12T08:40:17;26.90;99.90
36594;DHT22;22603;47.900;8.146;2022-07-12T08:43:05;27.30;99.90
36594;DHT22;22603;47.900;8.146;2022-07-12T08:45:52;27.40;99.90
36594;DHT22;22603;47.900;8.146;2022-07-12T08:48:40;28.00;99.90
36594;DHT22;22603;47.900;8.146;2022-07-12T08:51:27;28.10;99.90
36594;DHT22;22603;47.900;8.146;2022-07-12T08:54:15;28.10;99.90
36594;DHT22;22603;47.900;8.146;2022-07-12T08:57:05;28.10;99.90
36594;DHT22;22603;47.900;8.146;2022-07-12T08:59:58;27.70;99.90
36594;DHT22;22603;47.900;8.146;2022-07-12T09:02:47;28.70;99.90
36594;DHT22;22603;47.900;8.146;2022-07-12T09:05:35;29.20;99.90
36594;DHT22;22603;47.900;8.146;2022-07-12T09:08:27;29.00;99.90
36594;DHT22;22603;47.900;8.146;2022-07-12T09:11:16;28.40;99.90
36594;DHT22;22603;47.900;8.146;2022-07-12T09:14:05;27.60;99.90
36594;DHT22;22603;47.900;8.146;2022-07-12T09:17:00;28.30;99.90
36594;DHT22;22603;47.900;8.146;2022-07-12T09:19:54;27.70;99.90
36594;DHT22;22603;47.900;8.146;2022-07-12T09:22:51;27.50;99.90
36594;DHT22;22603;47.900;8.146;2022-07-12T09:25:39;28.60;99.90
36594;DHT22;22603;47.900;8.146;2022-07-12T09:28:30;29.00;99.90
36594;DHT22;22603;47.900;8.146;2022-07-12T09:31:19;29.20;99.90
36594;DHT22;22603;47.900;8.146;2022-07-12T09:34:06;28.70;99.90
36594;DHT22;22603;47.900;8.146;2022-07-12T09:37:11;28.60;99.90
36594;DHT22;22603;47.900;8.146;2022-07-12T09:39:59;28.50;99.90
36594;DHT22;22603;47.900;8.146;2022-07-12T09:42:47;28.70;99.90
36594;DHT22;22603;47.900;8.146;2022-07-12T09:45:36;28.90;99.90
36594;DHT22;22603;47.900;8.146;2022-07-12T09:48:26;29.40;99.90
36594;DHT22;22603;47.900;8.146;2022-07-12T09:51:16;30.40;99.90
36594;DHT22;22603;47.900;8.146;2022-07-12T09:54:17;30.50;99.90
36594;DHT22;22603;47.900;8.146;2022-07-12T09:57:20;30.20;99.90
36594;DHT22;22603;47.900;8.146;2022-07-12T10:00:08;29.50;99.90
36594;DHT22;22603;47.900;8.146;2022-07-12T10:02:58;30.20;99.90
36594;DHT22;22603;47.900;8.146;2022-07-12T10:05:50;29.30;99.90
36594;DHT22;22603;47.900;8.146;2022-07-12T10:08:38;29.00;99.90
36594;DHT22;22603;47.900;8.146;2022-07-12T10:11:26;30.00;99.90
36594;DHT22;22603;47.900;8.146;2022-07-12T10:14:33;29.70;99.90
36594;DHT22;22603;47.900;8.146;2022-07-12T10:17:22;28.90;99.90
36594;DHT22;22603;47.900;8.146;2022-07-12T10:20:16;29.10;99.90
36594;DHT22;22603;47.900;8.146;2022-07-12T10:23:32;29.90;99.90
36594;DHT22;22603;47.900;8.146;2022-07-12T10:26:36;31.20;99.90
36594;DHT22;22603;47.900;8.146;2022-07-12T10:29:26;29.90;99.90
36594;DHT22;22603;47.900;8.146;2022-07-12T10:32:20;31.20;99.90
36594;DHT22;22603;47.900;8.146;2022-07-12T10:35:17;31.10;99.90
36594;DHT22;22603;47.900;8.146;2022-07-12T10:38:23;29.50;99.90
36594;DHT22;22603;47.900;8.146;2022-07-12T10:41:18;28.70;99.90
36594;DHT22;22603;47.900;8.146;2022-07-12T10:44:06;29.40;99.90
36594;DHT22;22603;47.900;8.146;2022-07-12T10:46:59;30.00;99.90
36594;DHT22;22603;47.900;8.146;2022-07-12T10:49:48;29.40;99.90
36594;DHT22;22603;47.900;8.146;2022-07-12T10:52:35;30.50;99.90
36594;DHT22;22603;47.900;8.146;2022-07-12T10:55:23;31.00;99.90
36594;DHT22;22603;47.900;8.146;2022-07-12T10:58:29;31.10;99.90
36594;DHT22;22603;47.900;8.146;2022-07-12T11:01:19;32.40;99.90
36594;DHT22;22603;47.900;8.146;2022-07-12T11:04:08;32.30;99.90
36594;DHT22;22603;47.900;8.146;2022-07-12T11:06:55;31.70;99.90
36594;DHT22;22603;47.900;8.146;2022-07-12T11:09:47;30.80;99.90
36594;DHT22;22603;47.900;8.146;2022-07-12T11:12:37;30.10;99.90
36594;DHT22;22603;47.900;8.146;2022-07-12T11:15:28;29.90;99.90
36594;DHT22;22603;47.900;8.146;2022-07-12T11:18:27;30.10;99.90
36594;DHT22;22603;47.900;8.146;2022-07-12T11:21:15;31.30;99.90
36594;DHT22;22603;47.900;8.146;2022-07-12T11:24:02;31.80;99.90
36594;DHT22;22603;47.900;8.146;2022-07-12T11:26:49;31.50;99.90
36594;DHT22;22603;47.900;8.146;2022-07-12T11:29:37;30.80;99.90
36594;DHT22;22603;47.900;8.146;2022-07-12T11:32:38;31.50;99.90
36594;DHT22;22603;47.900;8.146;2022-07-12T11:35:26;30.80;99.90
36594;DHT22;22603;47.900;8.146;2022-07-12T11:38:23;31.40;99.90
36594;DHT22;22603;47.900;8.146;2022-07-12T11:41:19;31.70;99.90
36594;DHT22;22603;47.900;8.146;2022-07-12T11:44:08;31.70;99.90
36594;DHT22;22603;47.900;8.146;2022-07-12T11:46:55;32.10;99.90
36594;DHT22;22603;47.900;8.146;2022-07-12T11:49:44;31.50;99.90
36594;DHT22;22603;47.900;8.146;2022-07-12T11:52:35;31.50;99.90
36594;DHT22;22603;47.900;8.146;2022-07-12T11:55:22;30.60;99.90
36594;DHT22;22603;47.900;8.146;2022-07-12T11:58:09;31.40;99.90
36594;DHT22;22603;47.900;8.146;2022-07-12T12:00:57;31.60;99.90
36594;DHT22;22603;47.900;8.146;2022-07-12T12:03:44;31.70;99.90
36594;DHT22;22603;47.900;8.146;2022-07-12T12:06:33;31.30;99.90
36594;DHT22;22603;47.900;8.146;2022-07-12T12:09:20;32.40;99.90
36594;DHT22;22603;47.900;8.146;2022-07-12T12:12:13;31.80;99.90
36594;DHT22;22603;47.900;8.146;2022-07-12T12:15:02;30.90;99.90
36594;DHT22;22603;47.900;8.146;2022-07-12T12:17:53;30.70;99.90
36594;DHT22;22603;47.900;8.146;2022-07-12T12:20:42;30.00;99.90
36594;DHT22;22603;47.900;8.146;2022-07-12T12:23:30;30.30;99.90
36594;DHT22;22603;47.900;8.146;2022-07-12T12:26:19;31.50;99.90
36594;DHT22;22603;47.900;8.146;2022-07-12T12:29:07;32.10;99.90
36594;DHT22;22603;47.900;8.146;2022-07-12T12:31:58;32.70;99.90
36594;DHT22;22603;47.900;8.146;2022-07-12T12:35:06;33.10;99.90
36594;DHT22;22603;47.900;8.146;2022-07-12T12:37:55;32.80;99.90
36594;DHT22;22603;47.900;8.146;2022-07-12T12:40:51;31.90;99.90
36594;DHT22;22603;47.900;8.146;2022-07-12T12:43:39;30.10;99.90
36594;DHT22;22603;47.900;8.146;2022-07-12T12:46:46;29.70;99.90
36594;DHT22;22603;47.900;8.146;2022-07-12T12:49:46;30.20;99.90
36594;DHT22;22603;47.900;8.146;2022-07-12T12:52:48;30.10;99.90
36594;DHT22;22603;47.900;8.146;2022-07-12T12:55:36;30.10;99.90
36594;DHT22;22603;47.900;8.146;2022-07-12T12:58:27;29.60;99.90
36594;DHT22;22603;47.900;8.146;2022-07-12T13:01:14;29.60;99.90
36594;DHT22;22603;47.900;8.146;2022-07-12T13:04:08;29.80;99.90
36594;DHT22;22603;47.900;8.146;2022-07-12T13:06:56;30.10;99.90
36594;DHT22;22603;47.900;8.146;2022-07-12T13:09:43;31.00;99.90
36594;DHT22;22603;47.900;8.146;2022-07-12T13:12:30;31.10;99.90
36594;DHT22;22603;47.900;8.146;2022-07-12T13:15:18;31.00;99.90
36594;DHT22;22603;47.900;8.146;2022-07-12T13:18:06;31.60;99.90
36594;DHT22;22603;47.900;8.146;2022-07-12T13:20:53;32.00;99.90
36594;DHT22;22603;47.900;8.146;2022-07-12T13:23:40;32.40;99.90
36594;DHT22;22603;47.900;8.146;2022-07-12T13:26:27;33.00;99.90
36594;DHT22;22603;47.900;8.146;2022-07-12T13:29:14;32.60;99.90
36594;DHT22;22603;47.900;8.146;2022-07-12T13:32:04;32.70;99.90
36594;DHT22;22603;47.900;8.146;2022-07-12T13:34:51;30.80;99.90
36594;DHT22;22603;47.900;8.146;2022-07-12T13:37:40;30.80;99.90
36594;DHT22;22603;47.900;8.146;2022-07-12T13:40:27;30.40;99.90
36594;DHT22;22603;47.900;8.146;2022-07-12T13:43:14;30.30;99.90
36594;DHT22;22603;47.900;8.146;2022-07-12T13:46:01;29.10;99.90
36594;DHT22;22603;47.900;8.146;2022-07-12T13:48:50;29.10;99.90
36594;DHT22;22603;47.900;8.146;2022-07-12T13:51:37;29.60;99.90
36594;DHT22;22603;47.900;8.146;2022-07-12T13:54:24;30.40;99.90
36594;DHT22;22603;47.900;8.146;2022-07-12T13:57:11;30.60;99.90
36594;DHT22;22603;47.900;8.146;2022-07-12T13:59:58;31.00;99.90
36594;DHT22;22603;47.900;8.146;2022-07-12T14:02:48;31.30;99.90
36594;DHT22;22603;47.900;8.146;2022-07-12T14:05:41;31.30;99.90
36594;DHT22;22603;47.900;8.146;2022-07-12T14:08:28;31.40;99.90
36594;DHT22;22603;47.900;8.146;2022-07-12T14:11:16;31.20;99.90
36594;DHT22;22603;47.900;8.146;2022-07-12T14:14:03;31.40;99.90
36594;DHT22;22603;47.900;8.146;2022-07-12T14:16:50;31.30;99.90
36594;DHT22;22603;47.900;8.146;2022-07-12T14:19:37;31.10;99.90
36594;DHT22;22603;47.900;8.146;2022-07-12T14:22:25;30.00;99.90
36594;DHT22;22603;47.900;8.146;2022-07-12T14:25:12;29.30;99.90
36594;DHT22;22603;47.900;8.146;2022-07-12T14:28:00;29.30;99.90
36594;DHT22;22603;47.900;8.146;2022-07-12T14:30:46;29.40;99.90
36594;DHT22;22603;47.900;8.146;2022-07-12T14:33:34;28.90;99.90
36594;DHT22;22603;47.900;8.146;2022-07-12T14:36:20;28.40;99.90
36594;DHT22;22603;47.900;8.146;2022-07-12T14:39:09;28.00;99.90
36594;DHT22;22603;47.900;8.146;2022-07-12T14:41:57;28.10;99.90
36594;DHT22;22603;47.900;8.146;2022-07-12T14:44:45;27.80;99.90
36594;DHT22;22603;47.900;8.146;2022-07-12T14:47:38;27.70;99.90
36594;DHT22;22603;47.900;8.146;2022-07-12T14:50:26;27.70;99.90
36594;DHT22;22603;47.900;8.146;2022-07-12T14:53:13;27.30;99.90
36594;DHT22;22603;47.900;8.146;2022-07-12T14:56:02;27.30;99.90
36594;DHT22;22603;47.900;8.146;2022-07-12T14:58:49;27.40;99.90
36594;DHT22;22603;47.900;8.146;2022-07-12T15:01:37;27.70;99.90
36594;DHT22;22603;47.900;8.146;2022-07-12T15:04:24;27.50;99.90
36594;DHT22;22603;47.900;8.146;2022-07-12T15:07:11;27.80;99.90
36594;DHT22;22603;47.900;8.146;2022-07-12T15:09:58;28.00;99.90
36594;DHT22;22603;47.900;8.146;2022-07-12T15:12:47;27.60;99.90
36594;DHT22;22603;47.900;8.146;2022-07-12T15:15:35;27.30;99.90
36594;DHT22;22603;47.900;8.146;2022-07-12T15:18:23;27.10;99.90
36594;DHT22;22603;47.900;8.146;2022-07-12T15:21:11;26.50;99.90
36594;DHT22;22603;47.900;8.146;2022-07-12T15:23:58;26.20;99.90
36594;DHT22;22603;47.900;8.146;2022-07-12T15:26:45;26.60;99.90
36594;DHT22;22603;47.900;8.146;2022-07-12T15:29:36;26.60;99.90
36594;DHT22;22603;47.900;8.146;2022-07-12T15:32:26;27.30;99.90
36594;DHT22;22603;47.900;8.146;2022-07-12T15:35:13;28.00;99.90
36594;DHT22;22603;47.900;8.146;2022-07-12T15:38:00;28.30;99.90
36594;DHT22;22603;47.900;8.146;2022-07-12T15:40:46;28.80;99.90
36594;DHT22;22603;47.900;8.146;2022-07-12T15:43:34;28.40;99.90
36594;DHT22;22603;47.900;8.146;2022-07-12T15:46:22;28.00;99.90
36594;DHT22;22603;47.900;8.146;2022-07-12T15:49:10;27.30;99.90
36594;DHT22;22603;47.900;8.146;2022-07-12T15:51:57;27.20;99.90
36594;DHT22;22603;47.900;8.146;2022-07-12T15:55:02;27.00;99.90
36594;DHT22;22603;47.900;8.146;2022-07-12T15:57:49;27.10;99.90
36594;DHT22;22603;47.900;8.146;2022-07-12T16:00:36;26.60;99.90
36594;DHT22;22603;47.900;8.146;2022-07-12T16:03:26;26.50;99.90
36594;DHT22;22603;47.900;8.146;2022-07-12T16:06:14;26.30;99.90
36594;DHT22;22603;47.900;8.146;2022-07-12T16:09:01;26.40;99.90
36594;DHT22;22603;47.900;8.146;2022-07-12T16:11:48;27.30;99.90
36594;DHT22;22603;47.900;8.146;2022-07-12T16:14:42;27.90;99.90
36594;DHT22;22603;47.900;8.146;2022-07-12T16:17:30;27.70;99.90
36594;DHT22;22603;47.900;8.146;2022-07-12T16:20:19;27.00;99.90
36594;DHT22;22603;47.900;8.146;2022-07-12T16:23:07;26.90;99.90
36594;DHT22;22603;47.900;8.146;2022-07-12T16:25:55;27.10;99.90
36594;DHT22;22603;47.900;8.146;2022-07-12T16:28:48;27.10;99.90
36594;DHT22;22603;47.900;8.146;2022-07-12T16:31:36;27.40;99.90
36594;DHT22;22603;47.900;8.146;2022-07-12T16:34:43;27.40;99.90
36594;DHT22;22603;47.900;8.146;2022-07-12T16:37:31;27.40;99.90
36594;DHT22;22603;47.900;8.146;2022-07-12T16:40:18;27.00;99.90
36594;DHT22;22603;47.900;8.146;2022-07-12T16:43:06;26.70;99.90
36594;DHT22;22603;47.900;8.146;2022-07-12T16:45:53;26.50;99.90
36594;DHT22;22603;47.900;8.146;2022-07-12T16:48:40;26.30;99.90
36594;DHT22;22603;47.900;8.146;2022-07-12T16:51:28;26.00;99.90
36594;DHT22;22603;47.900;8.146;2022-07-12T16:54:17;25.70;99.90
36594;DHT22;22603;47.900;8.146;2022-07-12T16:57:05;25.70;99.90
36594;DHT22;22603;47.900;8.146;2022-07-12T16:59:52;25.60;99.90
36594;DHT22;22603;47.900;8.146;2022-07-12T17:02:39;25.50;99.90
36594;DHT22;22603;47.900;8.146;2022-07-12T17:05:26;25.50;99.90
36594;DHT22;22603;47.900;8.146;2022-07-12T17:08:13;25.50;99.90
36594;DHT22;22603;47.900;8.146;2022-07-12T17:11:02;25.70;99.90
36594;DHT22;22603;47.900;8.146;2022-07-12T17:13:49;25.80;99.90
36594;DHT22;22603;47.900;8.146;2022-07-12T17:16:36;25.60;99.90
36594;DHT22;22603;47.900;8.146;2022-07-12T17:19:24;25.50;99.90
36594;DHT22;22603;47.900;8.146;2022-07-12T17:22:12;25.40;99.90
36594;DHT22;22603;47.900;8.146;2022-07-12T17:24:59;25.30;99.90
36594;DHT22;22603;47.900;8.146;2022-07-12T17:27:59;25.10;99.90
36594;DHT22;22603;47.900;8.146;2022-07-12T17:30:46;25.00;99.90
36594;DHT22;22603;47.900;8.146;2022-07-12T17:33:36;24.90;99.90
36594;DHT22;22603;47.900;8.146;2022-07-12T17:36:24;24.70;99.90
36594;DHT22;22603;47.900;8.146;2022-07-12T17:39:12;24.60;99.90
36594;DHT22;22603;47.900;8.146;2022-07-12T17:41:59;24.60;99.90
36594;DHT22;22603;47.900;8.146;2022-07-12T17:44:49;24.70;99.90
36594;DHT22;22603;47.900;8.146;2022-07-12T17:47:36;24.60;99.90
36594;DHT22;22603;47.900;8.146;2022-07-12T17:50:23;24.60;99.90